Time;durP1;ratioP1;P1;durP2;ratioP2;P2;SDS_P1;SDS_P2;PMS_P1;PMS_P2;Temp;Humidity;BMP_temperature;BMP_pressure;BME280_temperature;BME280_humidity;BME280_pressure;Samples;Min_cycle;Max_cycle;Signal;HPM_P1;HPM_P2
2023/09/28 00:01:13;;;;;;;6.70;5.57;;;15.30;99.90;;;;;;5053829;28;20213;-73
2023/09/28 00:03:44;;;;;;;7.90;6.45;;;15.30;99.90;;;;;;5053616;28;20240;-73
2023/09/28 00:06:13;;;;;;;9.80;6.13;;;15.30;99.90;;;;;;5053776;28;20206;-74
2023/09/28 00:08:40;;;;;;;9.77;5.50;;;15.20;99.90;;;;;;5047942;28;20262;-73
2023/09/28 00:11:08;;;;;;;8.93;5.70;;;15.20;99.90;;;;;;5042815;28;20300;-73
2023/09/28 00:13:35;;;;;;;8.52;6.13;;;15.20;99.90;;;;;;5053461;28;20214;-73
2023/09/28 00:16:04;;;;;;;9.38;5.65;;;15.20;99.90;;;;;;5045179;28;20206;-73
2023/09/28 00:18:31;;;;;;;8.40;5.70;;;15.20;99.90;;;;;;5040988;28;20719;-73
2023/09/28 00:21:00;;;;;;;6.63;5.78;;;15.30;99.90;;;;;;5049259;28;20275;-72
2023/09/28 00:23:28;;;;;;;7.53;5.03;;;15.30;99.90;;;;;;5049982;28;20558;-73
2023/09/28 00:25:56;;;;;;;6.32;5.35;;;15.30;99.90;;;;;;5040851;28;20686;-73
2023/09/28 00:28:23;;;;;;;6.25;4.80;;;15.20;99.90;;;;;;5052790;28;20284;-73
2023/09/28 00:30:52;;;;;;;7.68;5.00;;;15.20;99.90;;;;;;5052854;28;20658;-73
2023/09/28 00:33:20;;;;;;;7.85;4.72;;;15.10;99.90;;;;;;5053474;28;20305;-73
2023/09/28 00:35:48;;;;;;;9.32;4.70;;;15.10;99.90;;;;;;5053232;28;20640;-73
2023/09/28 00:38:15;;;;;;;4.60;4.25;;;15.10;99.90;;;;;;5053026;28;20226;-73
2023/09/28 00:40:43;;;;;;;7.65;5.25;;;15.10;99.90;;;;;;5052670;28;20241;-73
2023/09/28 00:43:10;;;;;;;5.65;5.15;;;15.10;99.90;;;;;;5036342;28;20215;-73
2023/09/28 00:45:38;;;;;;;7.25;5.43;;;15.10;99.90;;;;;;5052595;28;20648;-73
2023/09/28 00:48:06;;;;;;;8.27;5.35;;;15.00;99.90;;;;;;5044231;28;20226;-73
2023/09/28 00:50:35;;;;;;;5.15;4.82;;;15.00;99.90;;;;;;5045123;28;20216;-73
2023/09/28 00:53:04;;;;;;;10.90;5.50;;;15.00;99.90;;;;;;5036481;28;20309;-73
2023/09/28 00:55:32;;;;;;;7.18;5.40;;;15.00;99.90;;;;;;5033656;28;20218;-73
2023/09/28 00:58:00;;;;;;;12.98;5.53;;;15.00;99.90;;;;;;5049748;28;20233;-72
2023/09/28 01:00:31;;;;;;;7.07;5.72;;;15.00;99.90;;;;;;5049076;28;20679;-73
2023/09/28 01:03:02;;;;;;;7.22;5.43;;;15.00;99.90;;;;;;5040451;28;20216;-73
2023/09/28 01:05:33;;;;;;;7.30;6.38;;;15.00;99.90;;;;;;5048938;28;20202;-73
2023/09/28 01:08:06;;;;;;;9.07;5.55;;;15.00;99.90;;;;;;5040025;28;20233;-73
2023/09/28 01:10:35;;;;;;;10.32;6.45;;;15.00;99.90;;;;;;5052035;28;20658;-73
2023/09/28 01:13:06;;;;;;;7.00;5.82;;;15.00;99.90;;;;;;5036207;28;20210;-73
2023/09/28 01:15:35;;;;;;;9.93;6.10;;;15.00;99.90;;;;;;5036806;28;20271;-73
2023/09/28 01:18:03;;;;;;;8.25;6.13;;;15.10;99.90;;;;;;5058819;22;20260;-59
2023/09/28 01:20:35;;;;;;;7.95;5.82;;;15.00;99.90;;;;;;5043626;28;20205;-59
2023/09/28 01:23:04;;;;;;;10.40;6.43;;;15.00;99.90;;;;;;5052320;28;20209;-59
2023/09/28 01:25:32;;;;;;;10.55;5.95;;;15.10;99.90;;;;;;5052016;28;20225;-59
2023/09/28 01:28:00;;;;;;;8.88;5.70;;;15.10;99.90;;;;;;5041428;28;20210;-58
2023/09/28 01:30:28;;;;;;;6.60;5.60;;;15.10;99.90;;;;;;5051350;28;20222;-59
2023/09/28 01:32:55;;;;;;;8.05;6.15;;;15.10;99.90;;;;;;5052233;28;20621;-58
2023/09/28 01:35:23;;;;;;;13.55;6.72;;;15.10;99.90;;;;;;5051810;28;20251;-59
2023/09/28 01:38:00;;;;;;;6.53;5.93;;;15.10;99.90;;;;;;5051878;28;20244;-58
2023/09/28 01:40:30;;;;;;;8.00;6.35;;;15.10;99.90;;;;;;5051450;28;20346;-58
2023/09/28 01:42:57;;;;;;;8.90;6.60;;;15.00;99.90;;;;;;5051603;28;20292;-60
2023/09/28 01:45:26;;;;;;;7.82;6.63;;;15.00;99.90;;;;;;5036511;28;20727;-59
2023/09/28 01:47:53;;;;;;;7.65;6.25;;;15.00;99.90;;;;;;5031607;28;20234;-60
2023/09/28 01:50:21;;;;;;;6.93;6.00;;;15.00;99.90;;;;;;5041443;28;20229;-59
2023/09/28 01:52:48;;;;;;;7.70;6.45;;;15.00;99.90;;;;;;5051174;28;20682;-59
2023/09/28 01:55:16;;;;;;;7.07;6.38;;;15.00;99.90;;;;;;5051286;28;20210;-60
2023/09/28 01:57:44;;;;;;;6.97;6.35;;;15.00;99.90;;;;;;5050615;28;20236;-59
2023/09/28 02:00:14;;;;;;;8.63;6.07;;;15.00;99.90;;;;;;5030973;28;20317;-59
2023/09/28 02:02:42;;;;;;;7.25;6.50;;;15.00;99.90;;;;;;5036127;28;20656;-59
2023/09/28 02:05:11;;;;;;;13.70;6.75;;;15.00;99.90;;;;;;5051175;28;20292;-59
2023/09/28 02:07:38;;;;;;;11.30;6.13;;;15.00;99.90;;;;;;5051352;28;20209;-59
2023/09/28 02:10:07;;;;;;;10.35;6.78;;;15.00;99.90;;;;;;5050757;28;20247;-59
2023/09/28 02:12:34;;;;;;;8.43;7.63;;;15.00;99.90;;;;;;5051588;28;20301;-59
2023/09/28 02:15:05;;;;;;;8.73;7.28;;;15.00;99.90;;;;;;5051199;28;20296;-60
2023/09/28 02:17:32;;;;;;;9.80;7.30;;;15.00;99.90;;;;;;5051058;28;20209;-59
2023/09/28 02:20:00;;;;;;;8.05;7.05;;;15.00;99.90;;;;;;5050833;28;20254;-60
2023/09/28 02:22:27;;;;;;;8.60;6.97;;;15.00;99.90;;;;;;5051163;28;20271;-58
2023/09/28 02:24:55;;;;;;;9.23;7.63;;;15.00;99.90;;;;;;5051311;28;20224;-59
2023/09/28 02:27:22;;;;;;;7.85;7.10;;;14.90;99.90;;;;;;5051253;28;20248;-58
2023/09/28 02:29:50;;;;;;;9.57;7.00;;;14.90;99.90;;;;;;5050544;28;20252;-58
2023/09/28 02:32:18;;;;;;;11.55;6.35;;;14.90;99.90;;;;;;5051274;28;20256;-58
2023/09/28 02:34:46;;;;;;;10.00;7.07;;;14.90;99.90;;;;;;5051046;28;20587;-59
2023/09/28 02:37:13;;;;;;;12.07;8.00;;;14.90;99.90;;;;;;5051014;28;20212;-59
2023/09/28 02:39:41;;;;;;;10.75;7.55;;;14.90;99.90;;;;;;5040655;28;20317;-59
2023/09/28 02:42:08;;;;;;;8.43;7.05;;;14.90;99.90;;;;;;5031268;28;20246;-60
2023/09/28 02:44:36;;;;;;;7.93;6.95;;;14.90;99.90;;;;;;5034467;28;20205;-58
2023/09/28 02:47:04;;;;;;;10.35;8.18;;;14.90;99.90;;;;;;5051046;28;20209;-58
2023/09/28 02:49:34;;;;;;;12.25;8.38;;;14.90;99.90;;;;;;5050239;28;20906;-59
2023/09/28 02:52:01;;;;;;;12.05;8.90;;;14.90;99.90;;;;;;5050963;28;20657;-59
2023/09/28 02:54:30;;;;;;;15.15;8.45;;;15.00;99.90;;;;;;5050676;28;20667;-59
2023/09/28 02:56:57;;;;;;;11.43;9.93;;;15.00;99.90;;;;;;5051201;28;20212;-58
2023/09/28 02:59:27;;;;;;;15.20;9.45;;;15.00;99.90;;;;;;5050289;28;20711;-59
2023/09/28 03:01:55;;;;;;;13.50;9.40;;;15.00;99.90;;;;;;5051036;28;20225;-59
2023/09/28 03:04:22;;;;;;;12.10;9.45;;;15.00;99.90;;;;;;5052618;28;20243;-60
2023/09/28 03:06:52;;;;;;;13.57;8.82;;;15.00;99.90;;;;;;5054669;28;20285;-59
2023/09/28 03:09:19;;;;;;;10.52;9.50;;;15.00;99.90;;;;;;5054167;28;20222;-58
2023/09/28 03:11:47;;;;;;;12.00;9.70;;;15.00;99.90;;;;;;5054408;28;20205;-60
2023/09/28 03:14:14;;;;;;;13.68;10.30;;;15.00;99.90;;;;;;5054599;28;20260;-60
2023/09/28 03:16:42;;;;;;;11.10;10.05;;;15.00;99.90;;;;;;5054407;28;20216;-60
2023/09/28 03:19:10;;;;;;;13.57;10.30;;;15.00;99.90;;;;;;5054138;28;20229;-59
2023/09/28 03:21:39;;;;;;;13.48;9.32;;;15.00;99.90;;;;;;5054261;28;20667;-59
2023/09/28 03:24:08;;;;;;;11.10;9.98;;;15.00;99.90;;;;;;5054446;28;20202;-59
2023/09/28 03:26:36;;;;;;;15.02;10.90;;;15.00;99.90;;;;;;5054058;28;20206;-58
2023/09/28 03:29:03;;;;;;;12.10;9.60;;;14.90;99.90;;;;;;5053799;28;20299;-59
2023/09/28 03:31:32;;;;;;;10.27;9.15;;;14.90;99.90;;;;;;5054060;28;20209;-58
2023/09/28 03:34:01;;;;;;;10.05;9.05;;;15.00;99.90;;;;;;5054240;28;20717;-59
2023/09/28 03:36:32;;;;;;;9.98;8.90;;;14.90;99.90;;;;;;5053698;28;20641;-58
2023/09/28 03:39:00;;;;;;;11.18;9.57;;;14.90;99.90;;;;;;5053880;28;20259;-60
2023/09/28 03:41:29;;;;;;;9.77;8.88;;;15.00;99.90;;;;;;5053917;28;20235;-59
2023/09/28 03:43:57;;;;;;;11.55;8.68;;;15.00;99.90;;;;;;5050979;28;20210;-59
2023/09/28 03:46:25;;;;;;;10.25;8.98;;;14.90;99.90;;;;;;5045675;28;20564;-59
2023/09/28 03:48:53;;;;;;;13.50;9.55;;;14.90;99.90;;;;;;5047680;28;20260;-58
2023/09/28 03:51:21;;;;;;;9.80;8.85;;;14.90;99.90;;;;;;5053762;28;20267;-59
2023/09/28 03:53:49;;;;;;;12.73;9.05;;;14.80;99.90;;;;;;5054046;28;20202;-58
2023/09/28 03:56:17;;;;;;;9.82;8.23;;;14.80;99.90;;;;;;5053496;28;20206;-58
2023/09/28 03:58:46;;;;;;;8.98;8.15;;;14.80;99.90;;;;;;5053728;28;20218;-59
2023/09/28 04:01:14;;;;;;;8.40;7.70;;;14.90;99.90;;;;;;5053471;28;20633;-60
2023/09/28 04:03:42;;;;;;;15.07;7.80;;;14.90;99.90;;;;;;5053821;28;20202;-59
2023/09/28 04:06:10;;;;;;;8.23;7.38;;;14.90;99.90;;;;;;5053426;28;20202;-59
2023/09/28 04:08:39;;;;;;;11.43;7.72;;;14.90;99.90;;;;;;5048848;28;20250;-60
2023/09/28 04:11:07;;;;;;;8.32;7.53;;;14.80;99.90;;;;;;5032971;28;20647;-59
2023/09/28 04:13:35;;;;;;;13.60;9.00;;;14.80;99.90;;;;;;5035245;28;20211;-59
2023/09/28 04:16:04;;;;;;;11.07;8.77;;;14.80;99.90;;;;;;5032963;28;20641;-59
2023/09/28 04:18:32;;;;;;;8.73;7.80;;;14.80;99.90;;;;;;5035540;28;20237;-59
2023/09/28 04:21:00;;;;;;;12.52;8.30;;;14.80;99.90;;;;;;5052874;28;20252;-59
2023/09/28 04:23:28;;;;;;;8.25;7.55;;;14.70;99.90;;;;;;5053085;28;20236;-59
2023/09/28 04:25:56;;;;;;;8.23;7.53;;;14.70;99.90;;;;;;5052939;28;20213;-59
2023/09/28 04:28:24;;;;;;;9.18;8.32;;;14.70;99.90;;;;;;5053125;28;20226;-59
2023/09/28 04:30:52;;;;;;;14.30;7.80;;;14.70;99.90;;;;;;5052756;28;20233;-59
2023/09/28 04:33:22;;;;;;;11.48;7.45;;;14.60;99.90;;;;;;5052002;28;20301;-59
2023/09/28 04:35:50;;;;;;;11.02;7.95;;;14.60;99.90;;;;;;5032599;28;20209;-60
2023/09/28 04:38:18;;;;;;;9.25;8.25;;;14.60;99.90;;;;;;5041428;28;20249;-59
2023/09/28 04:40:46;;;;;;;11.07;7.45;;;14.60;99.90;;;;;;5052581;28;20685;-59
2023/09/28 04:43:14;;;;;;;9.23;7.43;;;14.60;99.90;;;;;;5052931;28;20613;-59
2023/09/28 04:45:42;;;;;;;9.48;7.32;;;14.60;99.90;;;;;;5044285;28;20654;-60
2023/09/28 04:50:48;;;;;;;7.93;7.05;;;14.60;99.90;;;;;;5022503;28;20626;-60
2023/09/28 04:53:16;;;;;;;11.85;6.65;;;14.60;99.90;;;;;;5032858;28;20203;-60
2023/09/28 04:55:44;;;;;;;8.70;6.70;;;14.50;99.90;;;;;;5024405;28;20205;-60
2023/09/28 04:58:12;;;;;;;8.80;7.03;;;14.50;99.90;;;;;;5032533;28;20203;-60
2023/09/28 05:00:40;;;;;;;9.15;7.25;;;14.60;99.90;;;;;;5032241;28;20226;-60
2023/09/28 05:03:08;;;;;;;11.50;7.43;;;14.60;99.90;;;;;;5032623;28;20699;-60
2023/09/28 05:05:36;;;;;;;11.88;8.43;;;14.50;99.90;;;;;;5033523;28;20233;-60
2023/09/28 05:08:06;;;;;;;10.32;8.35;;;14.50;99.90;;;;;;5037915;28;20293;-60
2023/09/28 05:10:34;;;;;;;15.23;8.57;;;14.50;99.90;;;;;;5026544;28;20232;-60
2023/09/28 05:13:02;;;;;;;14.82;8.20;;;14.40;99.90;;;;;;5032564;28;20234;-60
2023/09/28 05:15:30;;;;;;;12.77;8.63;;;14.50;99.90;;;;;;5031980;28;20289;-60
2023/09/28 05:17:58;;;;;;;8.32;7.50;;;14.50;99.90;;;;;;5032200;28;20238;-60
2023/09/28 05:20:26;;;;;;;9.70;8.02;;;14.50;99.90;;;;;;5031654;28;20226;-60
2023/09/28 05:22:54;;;;;;;10.32;8.30;;;14.40;99.90;;;;;;5031508;28;20531;-60
2023/09/28 05:25:23;;;;;;;10.98;8.48;;;14.40;99.90;;;;;;5031614;28;20711;-60
2023/09/28 05:27:52;;;;;;;8.88;7.97;;;14.40;99.90;;;;;;5031232;28;20288;-60
2023/09/28 05:30:20;;;;;;;8.85;8.05;;;14.40;99.90;;;;;;5031682;28;20218;-61
2023/09/28 05:32:48;;;;;;;11.07;8.30;;;14.40;99.90;;;;;;5030881;28;20205;-61
2023/09/28 05:35:16;;;;;;;11.77;8.38;;;14.40;99.90;;;;;;5031666;28;20207;-61
2023/09/28 05:37:44;;;;;;;9.38;7.90;;;14.40;99.90;;;;;;5031745;28;20260;-61
2023/09/28 05:40:13;;;;;;;11.13;8.65;;;14.40;99.90;;;;;;5033632;28;20229;-61
2023/09/28 05:42:42;;;;;;;13.25;8.77;;;14.40;99.90;;;;;;5031895;28;20210;-62
2023/09/28 05:45:10;;;;;;;9.15;8.25;;;14.40;99.90;;;;;;5031604;28;20554;-61
2023/09/28 05:47:38;;;;;;;8.82;8.02;;;14.40;99.90;;;;;;5031820;28;20619;-61
2023/09/28 05:50:08;;;;;;;11.30;7.97;;;14.30;99.90;;;;;;5030611;28;20230;-61
2023/09/28 05:52:36;;;;;;;12.52;8.65;;;14.30;99.90;;;;;;5031487;28;20315;-61
2023/09/28 05:55:04;;;;;;;13.20;8.43;;;14.40;99.90;;;;;;5031297;28;20264;-61
2023/09/28 05:57:32;;;;;;;12.93;8.18;;;14.30;99.90;;;;;;5031395;28;20306;-61
2023/09/28 06:00:07;;;;;;;12.52;8.32;;;14.30;99.90;;;;;;5028880;28;20304;-61
2023/09/28 06:02:35;;;;;;;12.18;7.70;;;14.30;99.90;;;;;;5030811;28;20201;-61
2023/09/28 06:05:04;;;;;;;10.40;8.80;;;14.40;99.90;;;;;;5031260;28;20218;-62
2023/09/28 06:07:33;;;;;;;12.80;8.43;;;14.40;99.90;;;;;;5031138;28;20644;-61
2023/09/28 06:10:00;;;;;;;11.70;8.45;;;14.50;99.90;;;;;;5031145;28;20300;-61
2023/09/28 06:12:30;;;;;;;11.93;8.75;;;14.50;99.90;;;;;;5031284;28;20222;-61
2023/09/28 06:14:58;;;;;;;9.35;8.45;;;14.60;99.90;;;;;;5031148;28;20264;-61
2023/09/28 06:17:27;;;;;;;10.88;7.93;;;14.60;99.90;;;;;;5024219;28;20203;-60
2023/09/28 06:19:56;;;;;;;9.50;7.78;;;14.60;99.90;;;;;;5030445;28;20222;-60
2023/09/28 06:22:25;;;;;;;9.70;8.70;;;14.60;99.90;;;;;;5030916;28;20195;-61
2023/09/28 06:24:54;;;;;;;10.55;8.35;;;14.60;99.90;;;;;;5031141;28;20272;-61
2023/09/28 06:27:22;;;;;;;9.48;8.52;;;14.70;99.90;;;;;;5031008;28;20664;-61
2023/09/28 06:29:52;;;;;;;9.85;8.68;;;14.70;99.90;;;;;;5029775;28;20712;-60
2023/09/28 06:32:22;;;;;;;10.65;8.27;;;14.70;99.90;;;;;;5023989;28;20282;-60
2023/09/28 06:34:51;;;;;;;11.30;8.60;;;14.80;99.90;;;;;;5022294;28;20202;-61
2023/09/28 06:37:19;;;;;;;9.00;8.13;;;14.80;99.90;;;;;;5030643;28;20298;-61
2023/09/28 06:39:47;;;;;;;12.13;9.55;;;14.90;99.90;;;;;;5035045;28;20252;-61
2023/09/28 06:42:15;;;;;;;10.88;8.68;;;14.90;99.90;;;;;;5035265;28;20194;-60
2023/09/28 06:45:04;;;;;;;9.88;8.02;;;14.90;99.90;;;;;;5034788;28;20218;-61
2023/09/28 06:47:32;;;;;;;9.25;8.30;;;15.00;99.90;;;;;;5035037;28;20616;-61
2023/09/28 06:50:20;;;;;;;11.25;8.45;;;15.00;99.90;;;;;;5034409;28;20230;-60
2023/09/28 06:52:48;;;;;;;12.32;8.98;;;15.10;99.90;;;;;;5035041;28;20222;-61
2023/09/28 06:55:16;;;;;;;9.90;8.10;;;15.10;99.90;;;;;;5034694;28;20306;-61
2023/09/28 06:57:46;;;;;;;9.68;7.95;;;15.20;99.90;;;;;;5034668;28;21555;-60
2023/09/28 07:00:16;;;;;;;10.88;9.35;;;15.30;99.90;;;;;;5034572;28;20236;-61
2023/09/28 07:02:47;;;;;;;17.85;13.85;;;15.30;99.90;;;;;;5034973;28;20256;-61
2023/09/28 07:05:16;;;;;;;16.60;11.00;;;15.40;99.90;;;;;;5034553;28;20213;-61
2023/09/28 07:07:46;;;;;;;16.95;14.20;;;15.50;99.90;;;;;;5034604;28;20214;-61
2023/09/28 07:10:14;;;;;;;13.65;10.98;;;15.60;99.90;;;;;;5034224;28;20225;-61
2023/09/28 07:12:42;;;;;;;16.02;11.48;;;15.70;99.90;;;;;;5034651;28;20261;-61
2023/09/28 07:15:11;;;;;;;15.77;12.75;;;15.80;99.90;;;;;;5034453;28;20279;-61
2023/09/28 07:17:39;;;;;;;17.13;13.45;;;15.90;99.90;;;;;;5034081;28;20209;-61
2023/09/28 07:20:08;;;;;;;16.75;14.13;;;16.00;99.90;;;;;;5034144;28;20229;-61
2023/09/28 07:22:36;;;;;;;17.98;13.43;;;16.00;99.90;;;;;;5034290;28;20690;-61
2023/09/28 07:25:06;;;;;;;19.77;13.90;;;16.10;99.90;;;;;;5034422;28;20198;-61
2023/09/28 07:27:34;;;;;;;15.98;13.27;;;16.20;99.90;;;;;;5034216;28;20719;-61
2023/09/28 07:30:05;;;;;;;16.05;13.68;;;16.30;99.90;;;;;;5033988;28;20226;-61
2023/09/28 07:32:33;;;;;;;17.63;12.40;;;16.30;99.90;;;;;;5034181;28;20667;-61
2023/09/28 07:35:02;;;;;;;14.18;11.93;;;16.40;99.90;;;;;;5033923;28;20686;-61
2023/09/28 07:37:30;;;;;;;19.38;12.52;;;16.50;99.90;;;;;;5034209;28;20202;-60
2023/09/28 07:39:58;;;;;;;16.02;10.75;;;16.60;99.90;;;;;;5033898;28;20289;-61
2023/09/28 07:42:28;;;;;;;16.90;10.60;;;16.70;99.90;;;;;;5034157;28;20237;-61
2023/09/28 07:44:56;;;;;;;13.18;11.90;;;16.80;99.90;;;;;;5034056;28;20265;-60
2023/09/28 07:47:24;;;;;;;17.30;12.20;;;16.90;99.90;;;;;;5033870;28;20256;-61
2023/09/28 07:49:53;;;;;;;15.05;11.25;;;17.00;99.90;;;;;;5033040;28;20238;-61
2023/09/28 07:52:21;;;;;;;17.27;12.15;;;17.10;99.90;;;;;;5034099;28;20597;-61
2023/09/28 07:54:49;;;;;;;13.63;11.23;;;17.10;99.90;;;;;;5033950;28;20242;-60
2023/09/28 07:57:17;;;;;;;16.55;11.93;;;17.20;99.90;;;;;;5033805;28;20214;-60
2023/09/28 07:59:46;;;;;;;12.57;10.63;;;17.20;99.90;;;;;;5033632;28;20231;-60
2023/09/28 08:02:14;;;;;;;14.40;11.75;;;17.30;99.90;;;;;;5033690;28;20817;-61
2023/09/28 08:04:42;;;;;;;15.18;11.20;;;17.30;99.90;;;;;;5032930;28;20268;-61
2023/09/28 08:07:10;;;;;;;17.05;10.82;;;17.40;99.90;;;;;;5027508;28;20210;-60
2023/09/28 08:09:38;;;;;;;15.60;11.27;;;17.50;99.90;;;;;;5033623;28;20230;-61
2023/09/28 08:12:06;;;;;;;10.95;9.85;;;17.50;99.90;;;;;;5033459;28;20218;-61
2023/09/28 08:14:36;;;;;;;15.95;10.60;;;17.60;99.90;;;;;;5033524;28;20629;-61
2023/09/28 08:17:06;;;;;;;13.10;10.00;;;17.70;99.90;;;;;;5033745;28;20621;-61
2023/09/28 08:19:34;;;;;;;10.40;9.38;;;17.80;99.90;;;;;;5033434;28;20238;-60
2023/09/28 08:22:03;;;;;;;15.63;9.43;;;17.90;99.90;;;;;;5033475;28;20277;-61
2023/09/28 08:24:31;;;;;;;12.85;9.88;;;18.00;99.90;;;;;;5033573;28;20640;-61
2023/09/28 08:26:59;;;;;;;10.50;9.43;;;18.10;99.90;;;;;;5033326;28;20289;-61
2023/09/28 08:29:27;;;;;;;13.60;8.95;;;18.20;99.90;;;;;;5033154;28;20264;-60
2023/09/28 08:31:56;;;;;;;10.05;8.77;;;18.40;99.90;;;;;;5033250;28;20209;-61
2023/09/28 08:34:27;;;;;;;12.43;9.05;;;18.50;99.90;;;;;;5033309;28;20202;-60
2023/09/28 08:37:06;;;;;;;8.65;7.82;;;18.60;99.90;;;;;;5031433;28;20206;-61
2023/09/28 08:39:34;;;;;;;8.70;7.68;;;18.70;99.90;;;;;;5032223;28;20249;-61
2023/09/28 08:42:02;;;;;;;14.93;8.60;;;18.80;99.90;;;;;;5032570;28;20731;-61
2023/09/28 08:44:31;;;;;;;10.73;7.68;;;18.90;99.90;;;;;;5033019;28;20206;-61
2023/09/28 08:47:00;;;;;;;11.35;7.43;;;19.00;99.90;;;;;;5033028;28;20202;-60
2023/09/28 08:49:30;;;;;;;13.23;7.95;;;19.20;99.90;;;;;;5032679;28;20615;-61
2023/09/28 08:51:58;;;;;;;8.63;7.65;;;19.30;99.90;;;;;;5032527;28;20633;-61
2023/09/28 08:54:26;;;;;;;10.57;7.03;;;19.50;99.90;;;;;;5032978;28;20702;-61
2023/09/28 08:56:54;;;;;;;8.57;7.60;;;19.60;99.90;;;;;;5032602;28;20226;-61
2023/09/28 08:59:28;;;;;;;9.57;7.53;;;19.80;99.90;;;;;;5030901;28;20226;-61
2023/09/28 09:01:57;;;;;;;11.60;7.20;;;19.90;99.90;;;;;;5029577;28;20237;-61
2023/09/28 09:04:25;;;;;;;7.00;6.30;;;20.10;99.90;;;;;;5032423;28;20198;-61
2023/09/28 09:06:54;;;;;;;9.45;6.75;;;20.20;99.90;;;;;;5032019;28;20210;-61
2023/09/28 09:09:24;;;;;;;8.18;6.75;;;20.30;99.90;;;;;;5032410;28;20253;-61
2023/09/28 09:11:53;;;;;;;9.40;7.22;;;20.40;99.90;;;;;;5032106;28;20210;-61
2023/09/28 09:14:21;;;;;;;10.55;7.03;;;20.60;99.90;;;;;;5032568;28;20316;-61
2023/09/28 09:16:49;;;;;;;8.90;6.15;;;20.80;99.90;;;;;;5032317;28;20221;-61
2023/09/28 09:19:17;;;;;;;9.23;6.68;;;21.00;99.90;;;;;;5031979;28;20276;-61
2023/09/28 09:21:45;;;;;;;7.35;5.60;;;21.20;99.90;;;;;;5030991;28;20674;-61
2023/09/28 09:24:15;;;;;;;8.77;6.68;;;21.50;99.90;;;;;;5032624;28;20194;-60
2023/09/28 09:26:44;;;;;;;10.48;5.70;;;21.70;99.90;;;;;;5032241;28;20293;-61
2023/09/28 09:29:13;;;;;;;11.52;6.10;;;21.80;99.90;;;;;;5032030;28;20222;-61
2023/09/28 09:31:41;;;;;;;10.52;5.45;;;22.00;99.90;;;;;;5031943;28;20216;-61
2023/09/28 09:34:12;;;;;;;10.45;6.20;;;22.20;99.90;;;;;;5032410;28;20276;-61
2023/09/28 09:36:41;;;;;;;5.70;5.00;;;22.40;99.90;;;;;;5031737;28;20210;-61
2023/09/28 09:39:10;;;;;;;5.47;5.00;;;22.60;99.90;;;;;;5031853;28;20610;-61
2023/09/28 09:41:46;;;;;;;8.23;5.82;;;22.90;99.90;;;;;;5031894;28;20202;-61
2023/09/28 09:44:17;;;;;;;9.52;5.13;;;23.10;99.90;;;;;;5032030;28;20198;-61
2023/09/28 09:46:46;;;;;;;6.03;5.22;;;23.40;99.90;;;;;;5031950;28;20206;-61
2023/09/28 09:49:15;;;;;;;6.75;5.95;;;23.70;99.90;;;;;;5031707;28;20232;-61
2023/09/28 09:51:45;;;;;;;8.32;5.05;;;23.80;99.90;;;;;;5031723;28;20213;-61
2023/09/28 09:54:13;;;;;;;7.25;5.13;;;24.10;99.90;;;;;;5031764;28;20249;-61
2023/09/28 09:56:43;;;;;;;6.70;5.63;;;24.30;99.90;;;;;;5031450;28;20292;-61
2023/09/28 09:59:16;;;;;;;5.90;4.70;;;24.40;99.90;;;;;;5031444;28;20313;-61
2023/09/28 10:01:47;;;;;;;7.88;4.30;;;24.60;99.90;;;;;;5031192;28;20206;-61
2023/09/28 10:04:16;;;;;;;6.82;4.88;;;24.70;99.90;;;;;;5030315;28;20202;-61
2023/09/28 10:06:46;;;;;;;9.63;5.22;;;25.00;99.90;;;;;;5031398;28;20209;-61
2023/09/28 10:09:15;;;;;;;9.10;5.22;;;25.30;99.90;;;;;;5031466;28;20317;-61
2023/09/28 10:11:44;;;;;;;7.55;4.85;;;25.50;99.90;;;;;;5031672;28;20256;-61
2023/09/28 10:14:11;;;;;;;5.35;4.72;;;25.70;99.90;;;;;;5031461;28;20318;-61
2023/09/28 10:16:41;;;;;;;4.80;4.45;;;25.90;99.90;;;;;;5031322;28;20589;-61
2023/09/28 10:19:09;;;;;;;5.40;4.95;;;26.10;99.90;;;;;;5031303;28;20224;-61
2023/09/28 10:21:38;;;;;;;6.95;4.47;;;26.20;99.90;;;;;;5031196;28;20210;-61
2023/09/28 10:24:11;;;;;;;7.28;4.05;;;26.30;99.90;;;;;;5031726;28;20293;-61
2023/09/28 10:26:42;;;;;;;3.80;3.47;;;26.50;99.90;;;;;;5031326;28;20252;-61
2023/09/28 10:29:12;;;;;;;6.95;4.00;;;26.60;99.90;;;;;;5031222;28;20308;-62
2023/09/28 10:31:42;;;;;;;8.73;3.67;;;26.90;99.90;;;;;;5031307;28;20214;-61
2023/09/28 10:34:19;;;;;;;5.55;4.40;;;27.00;99.90;;;;;;5031451;28;20305;-61
2023/09/28 10:37:18;;;;;;;10.60;4.88;;;27.10;99.90;;;;;;5031111;28;20236;-61
2023/09/28 10:39:51;;;;;;;4.20;3.75;;;27.00;99.90;;;;;;5030946;28;20308;-59
2023/09/28 10:42:19;;;;;;;7.68;4.32;;;27.00;99.90;;;;;;5031089;28;20201;-59
2023/09/28 10:44:49;;;;;;;5.05;3.45;;;27.20;99.90;;;;;;5031100;28;20206;-59
2023/09/28 10:47:19;;;;;;;6.80;3.60;;;27.40;99.90;;;;;;5030946;28;20671;-59
2023/09/28 10:49:48;;;;;;;3.42;3.13;;;27.70;99.90;;;;;;5057446;22;20239;-59
2023/09/28 10:52:16;;;;;;;3.75;3.55;;;28.00;99.90;;;;;;5050545;28;20670;-58
2023/09/28 10:54:45;;;;;;;4.00;2.90;;;28.30;99.90;;;;;;5050300;28;20237;-57
2023/09/28 10:57:12;;;;;;;3.63;3.28;;;28.40;99.90;;;;;;5049959;28;20712;-58
2023/09/28 10:59:41;;;;;;;7.38;3.30;;;28.50;99.90;;;;;;5062390;28;20317;-58
2023/09/28 11:02:09;;;;;;;4.93;4.05;;;28.60;99.90;;;;;;5070543;28;20197;-58
2023/09/28 11:04:39;;;;;;;4.13;3.72;;;28.80;99.90;;;;;;5070493;28;20232;-58
2023/09/28 11:07:18;;;;;;;5.18;4.05;;;28.80;99.90;;;;;;5070304;28;20208;-57
2023/09/28 11:09:46;;;;;;;3.88;3.60;;;29.10;99.90;;;;;;5070171;28;20228;-58
2023/09/28 11:12:14;;;;;;;3.72;3.05;;;29.30;99.90;;;;;;5070341;28;20211;-58
2023/09/28 11:14:42;;;;;;;4.63;2.72;;;29.50;99.90;;;;;;5070583;28;20256;-58
2023/09/28 11:17:10;;;;;;;5.53;3.90;;;29.60;99.90;;;;;;5070257;28;20214;-58
2023/09/28 11:19:39;;;;;;;10.05;4.20;;;29.80;99.90;;;;;;5070185;28;20712;-56
2023/09/28 11:22:08;;;;;;;7.93;3.75;;;29.90;99.90;;;;;;5070090;28;20299;-58
2023/09/28 11:24:36;;;;;;;5.63;3.55;;;29.90;99.90;;;;;;5070752;28;20880;-58
2023/09/28 11:27:04;;;;;;;6.32;3.70;;;29.90;99.90;;;;;;5071575;28;20205;-58
2023/09/28 11:29:32;;;;;;;4.03;3.63;;;29.70;99.90;;;;;;5072817;28;20228;-58
2023/09/28 11:32:00;;;;;;;7.85;3.55;;;29.30;99.90;;;;;;5074024;28;20205;-59
2023/09/28 11:34:29;;;;;;;6.55;3.15;;;29.50;99.90;;;;;;5074358;28;20219;-59
2023/09/28 11:36:59;;;;;;;8.00;3.53;;;29.80;99.90;;;;;;5073909;28;20670;-59
2023/09/28 11:39:27;;;;;;;7.45;3.28;;;30.20;99.90;;;;;;5073928;28;20223;-59
2023/09/28 11:41:58;;;;;;;8.40;3.28;;;30.50;99.90;;;;;;5073943;28;20624;-58
2023/09/28 11:44:27;;;;;;;6.80;3.53;;;30.70;99.90;;;;;;5074382;28;20207;-60
2023/09/28 11:46:55;;;;;;;4.18;3.33;;;30.60;99.90;;;;;;5073782;28;20239;-59
2023/09/28 11:49:23;;;;;;;3.20;2.85;;;30.70;99.90;;;;;;5073651;28;20243;-58
2023/09/28 11:51:52;;;;;;;4.30;3.40;;;30.80;99.90;;;;;;5073968;28;20592;-59
2023/09/28 11:54:22;;;;;;;5.65;3.72;;;31.00;99.90;;;;;;5074163;28;20305;-59
2023/09/28 11:56:50;;;;;;;3.88;3.50;;;31.10;99.90;;;;;;5073768;28;20211;-59
2023/09/28 11:59:19;;;;;;;3.47;3.15;;;31.20;99.90;;;;;;5073689;28;20224;-59
2023/09/28 12:01:51;;;;;;;7.25;3.13;;;31.40;99.90;;;;;;5073470;28;20300;-59
2023/09/28 12:04:20;;;;;;;6.28;3.47;;;31.50;99.90;;;;;;5074125;28;20223;-59
2023/09/28 12:06:48;;;;;;;5.10;3.05;;;31.40;99.90;;;;;;5073490;28;20621;-59
2023/09/28 12:09:18;;;;;;;3.05;2.83;;;31.50;99.90;;;;;;5073524;28;20227;-59
2023/09/28 12:11:49;;;;;;;7.78;3.20;;;31.50;99.90;;;;;;5073556;28;20292;-59
2023/09/28 12:14:19;;;;;;;6.20;3.25;;;31.80;99.90;;;;;;5073548;28;20228;-58
2023/09/28 12:16:47;;;;;;;3.45;3.25;;;32.00;99.90;;;;;;5073569;28;20209;-59
2023/09/28 12:19:19;;;;;;;5.30;3.33;;;31.90;99.90;;;;;;5073259;28;20228;-60
2023/09/28 12:21:47;;;;;;;3.70;3.50;;;31.90;99.90;;;;;;5073225;28;20204;-60
2023/09/28 12:24:15;;;;;;;4.40;3.22;;;31.90;99.90;;;;;;5073406;28;20215;-59
2023/09/28 12:26:44;;;;;;;8.32;3.20;;;31.90;99.90;;;;;;5073188;28;20415;-59
2023/09/28 12:29:13;;;;;;;11.27;3.58;;;31.70;99.90;;;;;;5072981;28;20717;-58
2023/09/28 12:31:41;;;;;;;6.80;3.30;;;31.80;99.90;;;;;;5073367;28;20209;-59
2023/09/28 12:34:09;;;;;;;6.50;3.50;;;31.80;99.90;;;;;;5073372;28;20200;-59
2023/09/28 12:36:37;;;;;;;5.72;3.60;;;31.80;99.90;;;;;;5072726;28;20670;-59
2023/09/28 12:39:10;;;;;;;3.47;3.17;;;31.70;99.90;;;;;;5072722;28;20724;-59
2023/09/28 12:41:38;;;;;;;7.10;3.78;;;31.60;99.90;;;;;;5073217;28;20226;-59
2023/09/28 12:44:10;;;;;;;4.60;3.30;;;31.50;99.90;;;;;;5073235;28;20274;-58
2023/09/28 12:46:40;;;;;;;3.60;3.30;;;31.50;99.90;;;;;;5072879;28;20209;-58
2023/09/28 12:49:08;;;;;;;3.88;3.10;;;31.60;99.90;;;;;;5072610;28;20224;-59
2023/09/28 12:51:36;;;;;;;9.95;3.28;;;31.70;99.90;;;;;;5072802;28;20262;-59